sensor_id;sensor_type;location;lat;lon;timestamp;P1;durP1;ratioP1;P2;durP2;ratioP2
63688;SDS011;54895;40.928;14.480;2024-02-26T00:00:45;16.60;;;11.38;;
63688;SDS011;54895;40.928;14.480;2024-02-26T00:03:12;18.85;;;11.25;;
63688;SDS011;54895;40.928;14.480;2024-02-26T00:05:39;21.73;;;9.93;;
63688;SDS011;54895;40.928;14.480;2024-02-26T00:08:05;17.70;;;11.77;;
63688;SDS011;54895;40.928;14.480;2024-02-26T00:10:32;19.48;;;12.18;;
63688;SDS011;54895;40.928;14.480;2024-02-26T00:12:59;18.98;;;11.15;;
63688;SDS011;54895;40.928;14.480;2024-02-26T00:15:25;13.90;;;9.50;;
63688;SDS011;54895;40.928;14.480;2024-02-26T00:17:54;18.75;;;10.68;;
63688;SDS011;54895;40.928;14.480;2024-02-26T00:20:20;15.32;;;10.10;;
63688;SDS011;54895;40.928;14.480;2024-02-26T00:22:47;15.25;;;9.38;;
63688;SDS011;54895;40.928;14.480;2024-02-26T00:25:13;19.63;;;9.57;;
63688;SDS011;54895;40.928;14.480;2024-02-26T00:27:40;16.50;;;9.98;;
63688;SDS011;54895;40.928;14.480;2024-02-26T00:30:07;15.48;;;9.48;;
63688;SDS011;54895;40.928;14.480;2024-02-26T00:32:34;18.92;;;10.82;;
63688;SDS011;54895;40.928;14.480;2024-02-26T00:35:01;19.10;;;10.85;;
63688;SDS011;54895;40.928;14.480;2024-02-26T00:37:27;15.73;;;10.57;;
63688;SDS011;54895;40.928;14.480;2024-02-26T00:39:54;16.55;;;10.40;;
63688;SDS011;54895;40.928;14.480;2024-02-26T00:42:20;17.90;;;10.93;;
63688;SDS011;54895;40.928;14.480;2024-02-26T00:44:47;19.50;;;10.43;;
63688;SDS011;54895;40.928;14.480;2024-02-26T00:47:13;15.60;;;10.07;;
63688;SDS011;54895;40.928;14.480;2024-02-26T00:49:40;17.38;;;11.43;;
63688;SDS011;54895;40.928;14.480;2024-02-26T00:52:06;25.10;;;14.07;;
63688;SDS011;54895;40.928;14.480;2024-02-26T00:54:33;23.48;;;15.57;;
63688;SDS011;54895;40.928;14.480;2024-02-26T00:56:59;26.33;;;15.63;;
63688;SDS011;54895;40.928;14.480;2024-02-26T00:59:26;25.17;;;15.70;;
63688;SDS011;54895;40.928;14.480;2024-02-26T01:01:52;20.45;;;13.95;;
63688;SDS011;54895;40.928;14.480;2024-02-26T01:04:19;32.88;;;21.58;;
63688;SDS011;54895;40.928;14.480;2024-02-26T01:06:45;33.20;;;23.85;;
63688;SDS011;54895;40.928;14.480;2024-02-26T01:09:12;36.10;;;23.88;;
63688;SDS011;54895;40.928;14.480;2024-02-26T01:11:38;37.13;;;23.80;;
63688;SDS011;54895;40.928;14.480;2024-02-26T01:14:05;21.27;;;12.73;;
63688;SDS011;54895;40.928;14.480;2024-02-26T01:16:32;19.67;;;13.23;;
63688;SDS011;54895;40.928;14.480;2024-02-26T01:18:58;19.45;;;12.20;;
63688;SDS011;54895;40.928;14.480;2024-02-26T01:21:25;24.02;;;13.63;;
63688;SDS011;54895;40.928;14.480;2024-02-26T01:23:55;19.90;;;13.35;;
63688;SDS011;54895;40.928;14.480;2024-02-26T01:26:21;20.33;;;12.65;;
63688;SDS011;54895;40.928;14.480;2024-02-26T01:28:48;17.20;;;11.45;;
63688;SDS011;54895;40.928;14.480;2024-02-26T01:31:15;18.80;;;12.20;;
63688;SDS011;54895;40.928;14.480;2024-02-26T01:33:42;21.77;;;14.10;;
63688;SDS011;54895;40.928;14.480;2024-02-26T01:36:08;19.27;;;11.80;;
63688;SDS011;54895;40.928;14.480;2024-02-26T01:38:35;17.08;;;11.20;;
63688;SDS011;54895;40.928;14.480;2024-02-26T01:41:01;16.60;;;11.68;;
63688;SDS011;54895;40.928;14.480;2024-02-26T01:43:28;19.58;;;12.32;;
63688;SDS011;54895;40.928;14.480;2024-02-26T01:45:54;14.93;;;10.75;;
63688;SDS011;54895;40.928;14.480;2024-02-26T01:48:21;17.17;;;10.93;;
63688;SDS011;54895;40.928;14.480;2024-02-26T01:50:48;14.27;;;9.52;;
63688;SDS011;54895;40.928;14.480;2024-02-26T01:53:15;12.60;;;7.82;;
63688;SDS011;54895;40.928;14.480;2024-02-26T01:55:43;16.30;;;9.18;;
63688;SDS011;54895;40.928;14.480;2024-02-26T01:58:10;17.48;;;10.35;;
63688;SDS011;54895;40.928;14.480;2024-02-26T02:00:37;16.60;;;10.15;;
63688;SDS011;54895;40.928;14.480;2024-02-26T02:03:04;18.45;;;11.40;;
63688;SDS011;54895;40.928;14.480;2024-02-26T02:05:31;16.90;;;10.88;;
63688;SDS011;54895;40.928;14.480;2024-02-26T02:08:01;18.75;;;11.43;;
63688;SDS011;54895;40.928;14.480;2024-02-26T02:10:30;20.80;;;11.27;;
63688;SDS011;54895;40.928;14.480;2024-02-26T02:12:56;17.75;;;10.88;;
63688;SDS011;54895;40.928;14.480;2024-02-26T02:15:23;15.52;;;10.75;;
63688;SDS011;54895;40.928;14.480;2024-02-26T02:17:49;18.35;;;11.30;;
63688;SDS011;54895;40.928;14.480;2024-02-26T02:20:16;18.98;;;10.70;;
63688;SDS011;54895;40.928;14.480;2024-02-26T02:22:47;18.80;;;10.80;;
63688;SDS011;54895;40.928;14.480;2024-02-26T02:25:13;17.20;;;10.95;;
63688;SDS011;54895;40.928;14.480;2024-02-26T02:27:40;14.70;;;9.27;;
63688;SDS011;54895;40.928;14.480;2024-02-26T02:30:08;15.68;;;9.50;;
63688;SDS011;54895;40.928;14.480;2024-02-26T02:32:39;16.42;;;9.32;;
63688;SDS011;54895;40.928;14.480;2024-02-26T02:35:09;11.82;;;8.20;;
63688;SDS011;54895;40.928;14.480;2024-02-26T02:37:36;15.35;;;8.15;;
63688;SDS011;54895;40.928;14.480;2024-02-26T02:40:03;17.33;;;9.25;;
63688;SDS011;54895;40.928;14.480;2024-02-26T02:42:31;15.10;;;9.65;;
63688;SDS011;54895;40.928;14.480;2024-02-26T02:44:57;14.43;;;9.93;;
63688;SDS011;54895;40.928;14.480;2024-02-26T02:47:24;25.73;;;13.93;;
63688;SDS011;54895;40.928;14.480;2024-02-26T02:49:50;22.75;;;14.00;;
63688;SDS011;54895;40.928;14.480;2024-02-26T02:52:17;26.58;;;15.98;;
63688;SDS011;54895;40.928;14.480;2024-02-26T02:54:43;24.10;;;15.00;;
63688;SDS011;54895;40.928;14.480;2024-02-26T02:57:10;25.05;;;15.13;;
63688;SDS011;54895;40.928;14.480;2024-02-26T02:59:37;23.05;;;14.95;;
63688;SDS011;54895;40.928;14.480;2024-02-26T03:02:04;30.10;;;16.58;;
63688;SDS011;54895;40.928;14.480;2024-02-26T03:04:31;26.83;;;17.05;;
63688;SDS011;54895;40.928;14.480;2024-02-26T03:06:57;23.48;;;15.27;;
63688;SDS011;54895;40.928;14.480;2024-02-26T03:09:24;24.23;;;16.77;;
63688;SDS011;54895;40.928;14.480;2024-02-26T03:11:50;23.42;;;15.15;;
63688;SDS011;54895;40.928;14.480;2024-02-26T03:14:17;27.00;;;17.20;;
63688;SDS011;54895;40.928;14.480;2024-02-26T03:16:43;25.15;;;15.15;;
63688;SDS011;54895;40.928;14.480;2024-02-26T03:19:10;25.88;;;16.30;;
63688;SDS011;54895;40.928;14.480;2024-02-26T03:21:37;27.83;;;17.17;;
63688;SDS011;54895;40.928;14.480;2024-02-26T03:24:04;25.63;;;16.27;;
63688;SDS011;54895;40.928;14.480;2024-02-26T03:26:30;29.17;;;17.20;;
63688;SDS011;54895;40.928;14.480;2024-02-26T03:28:57;25.38;;;16.48;;
63688;SDS011;54895;40.928;14.480;2024-02-26T03:31:23;25.55;;;15.32;;
63688;SDS011;54895;40.928;14.480;2024-02-26T03:33:50;28.98;;;16.95;;
63688;SDS011;54895;40.928;14.480;2024-02-26T03:36:16;26.42;;;16.73;;
63688;SDS011;54895;40.928;14.480;2024-02-26T03:38:43;25.55;;;16.48;;
63688;SDS011;54895;40.928;14.480;2024-02-26T03:41:10;25.92;;;15.35;;
63688;SDS011;54895;40.928;14.480;2024-02-26T03:43:36;26.02;;;15.68;;
63688;SDS011;54895;40.928;14.480;2024-02-26T03:46:03;27.45;;;16.17;;
63688;SDS011;54895;40.928;14.480;2024-02-26T03:48:29;23.55;;;15.40;;
63688;SDS011;54895;40.928;14.480;2024-02-26T03:50:56;21.45;;;14.60;;
63688;SDS011;54895;40.928;14.480;2024-02-26T03:53:22;23.25;;;15.68;;
63688;SDS011;54895;40.928;14.480;2024-02-26T03:55:49;24.08;;;15.50;;
63688;SDS011;54895;40.928;14.480;2024-02-26T03:58:18;20.65;;;14.55;;
63688;SDS011;54895;40.928;14.480;2024-02-26T04:00:44;25.52;;;16.05;;
63688;SDS011;54895;40.928;14.480;2024-02-26T04:03:13;23.27;;;14.57;;
63688;SDS011;54895;40.928;14.480;2024-02-26T04:05:40;19.30;;;13.40;;
63688;SDS011;54895;40.928;14.480;2024-02-26T04:08:06;24.77;;;13.13;;
63688;SDS011;54895;40.928;14.480;2024-02-26T04:10:33;25.92;;;13.88;;
63688;SDS011;54895;40.928;14.480;2024-02-26T04:13:08;21.33;;;14.15;;
63688;SDS011;54895;40.928;14.480;2024-02-26T04:15:34;19.35;;;12.93;;
63688;SDS011;54895;40.928;14.480;2024-02-26T04:18:01;18.85;;;13.38;;
63688;SDS011;54895;40.928;14.480;2024-02-26T04:20:28;21.13;;;12.82;;
63688;SDS011;54895;40.928;14.480;2024-02-26T04:22:55;20.90;;;13.80;;
63688;SDS011;54895;40.928;14.480;2024-02-26T04:25:21;19.77;;;13.68;;
63688;SDS011;54895;40.928;14.480;2024-02-26T04:27:48;22.70;;;14.80;;
63688;SDS011;54895;40.928;14.480;2024-02-26T04:30:14;24.65;;;15.45;;
63688;SDS011;54895;40.928;14.480;2024-02-26T04:32:41;25.17;;;14.88;;
63688;SDS011;54895;40.928;14.480;2024-02-26T04:35:07;19.15;;;12.50;;
63688;SDS011;54895;40.928;14.480;2024-02-26T04:37:34;19.75;;;13.88;;
63688;SDS011;54895;40.928;14.480;2024-02-26T04:40:01;24.10;;;14.90;;
63688;SDS011;54895;40.928;14.480;2024-02-26T04:42:27;22.98;;;15.18;;
63688;SDS011;54895;40.928;14.480;2024-02-26T04:44:54;24.70;;;15.43;;
63688;SDS011;54895;40.928;14.480;2024-02-26T04:47:21;23.40;;;13.68;;
63688;SDS011;54895;40.928;14.480;2024-02-26T04:49:51;21.45;;;14.40;;
63688;SDS011;54895;40.928;14.480;2024-02-26T04:52:18;19.65;;;14.13;;
63688;SDS011;54895;40.928;14.480;2024-02-26T04:54:44;25.90;;;15.90;;
63688;SDS011;54895;40.928;14.480;2024-02-26T04:57:11;24.50;;;16.70;;
63688;SDS011;54895;40.928;14.480;2024-02-26T04:59:37;21.13;;;14.85;;
63688;SDS011;54895;40.928;14.480;2024-02-26T05:02:04;26.05;;;16.27;;
63688;SDS011;54895;40.928;14.480;2024-02-26T05:04:31;28.75;;;17.00;;
63688;SDS011;54895;40.928;14.480;2024-02-26T05:06:57;30.67;;;19.90;;
63688;SDS011;54895;40.928;14.480;2024-02-26T05:09:24;35.67;;;19.95;;
63688;SDS011;54895;40.928;14.480;2024-02-26T05:11:50;34.25;;;20.05;;
63688;SDS011;54895;40.928;14.480;2024-02-26T05:14:17;31.58;;;19.98;;
63688;SDS011;54895;40.928;14.480;2024-02-26T05:16:44;30.55;;;19.52;;
63688;SDS011;54895;40.928;14.480;2024-02-26T05:19:11;26.88;;;18.08;;
63688;SDS011;54895;40.928;14.480;2024-02-26T05:21:37;26.85;;;17.38;;
63688;SDS011;54895;40.928;14.480;2024-02-26T05:24:04;27.88;;;19.35;;
63688;SDS011;54895;40.928;14.480;2024-02-26T05:26:30;26.25;;;18.40;;
63688;SDS011;54895;40.928;14.480;2024-02-26T05:28:57;25.30;;;17.27;;
63688;SDS011;54895;40.928;14.480;2024-02-26T05:31:26;23.73;;;15.55;;
63688;SDS011;54895;40.928;14.480;2024-02-26T05:33:53;24.95;;;14.85;;
63688;SDS011;54895;40.928;14.480;2024-02-26T05:36:20;20.58;;;15.00;;
63688;SDS011;54895;40.928;14.480;2024-02-26T05:38:51;25.17;;;15.35;;
63688;SDS011;54895;40.928;14.480;2024-02-26T05:41:17;22.80;;;13.40;;
63688;SDS011;54895;40.928;14.480;2024-02-26T05:43:49;24.27;;;15.45;;
63688;SDS011;54895;40.928;14.480;2024-02-26T05:46:17;22.15;;;14.80;;
63688;SDS011;54895;40.928;14.480;2024-02-26T05:48:45;23.00;;;13.18;;
63688;SDS011;54895;40.928;14.480;2024-02-26T05:51:16;17.20;;;11.63;;
63688;SDS011;54895;40.928;14.480;2024-02-26T05:53:42;16.80;;;11.48;;
63688;SDS011;54895;40.928;14.480;2024-02-26T05:56:10;24.60;;;15.45;;
63688;SDS011;54895;40.928;14.480;2024-02-26T05:58:37;22.60;;;14.52;;
63688;SDS011;54895;40.928;14.480;2024-02-26T06:01:03;21.48;;;14.07;;
63688;SDS011;54895;40.928;14.480;2024-02-26T06:03:30;18.77;;;12.77;;
63688;SDS011;54895;40.928;14.480;2024-02-26T06:05:57;19.35;;;14.00;;
63688;SDS011;54895;40.928;14.480;2024-02-26T06:08:23;23.35;;;14.38;;
63688;SDS011;54895;40.928;14.480;2024-02-26T06:10:50;23.25;;;14.05;;
63688;SDS011;54895;40.928;14.480;2024-02-26T06:13:16;20.33;;;14.52;;
63688;SDS011;54895;40.928;14.480;2024-02-26T06:15:43;21.08;;;15.43;;
63688;SDS011;54895;40.928;14.480;2024-02-26T06:18:09;23.80;;;16.42;;
63688;SDS011;54895;40.928;14.480;2024-02-26T06:20:36;23.50;;;16.25;;
63688;SDS011;54895;40.928;14.480;2024-02-26T06:23:02;25.17;;;15.68;;
63688;SDS011;54895;40.928;14.480;2024-02-26T06:25:28;21.70;;;14.07;;
63688;SDS011;54895;40.928;14.480;2024-02-26T06:27:55;20.75;;;14.88;;
63688;SDS011;54895;40.928;14.480;2024-02-26T06:30:21;22.95;;;14.70;;
63688;SDS011;54895;40.928;14.480;2024-02-26T06:32:48;24.83;;;15.68;;
63688;SDS011;54895;40.928;14.480;2024-02-26T06:35:14;24.13;;;14.40;;
63688;SDS011;54895;40.928;14.480;2024-02-26T06:37:41;20.58;;;13.93;;
63688;SDS011;54895;40.928;14.480;2024-02-26T06:40:08;26.80;;;15.02;;
63688;SDS011;54895;40.928;14.480;2024-02-26T06:42:34;20.67;;;13.70;;
63688;SDS011;54895;40.928;14.480;2024-02-26T06:45:03;19.63;;;12.95;;
63688;SDS011;54895;40.928;14.480;2024-02-26T06:47:30;19.15;;;13.38;;
63688;SDS011;54895;40.928;14.480;2024-02-26T06:49:57;22.67;;;13.70;;
63688;SDS011;54895;40.928;14.480;2024-02-26T06:52:24;19.98;;;14.18;;
63688;SDS011;54895;40.928;14.480;2024-02-26T06:54:51;22.65;;;13.68;;
63688;SDS011;54895;40.928;14.480;2024-02-26T06:57:21;24.05;;;13.95;;
63688;SDS011;54895;40.928;14.480;2024-02-26T06:59:48;26.73;;;14.23;;
63688;SDS011;54895;40.928;14.480;2024-02-26T07:02:15;22.08;;;13.93;;
63688;SDS011;54895;40.928;14.480;2024-02-26T07:04:45;26.50;;;14.25;;
63688;SDS011;54895;40.928;14.480;2024-02-26T07:07:11;23.85;;;13.18;;
63688;SDS011;54895;40.928;14.480;2024-02-26T07:09:38;23.48;;;13.68;;
63688;SDS011;54895;40.928;14.480;2024-02-26T07:12:07;19.73;;;12.73;;
63688;SDS011;54895;40.928;14.480;2024-02-26T07:14:34;23.38;;;12.88;;
63688;SDS011;54895;40.928;14.480;2024-02-26T07:17:03;19.13;;;12.85;;
63688;SDS011;54895;40.928;14.480;2024-02-26T07:19:30;18.77;;;11.95;;
63688;SDS011;54895;40.928;14.480;2024-02-26T07:21:56;19.40;;;12.60;;
63688;SDS011;54895;40.928;14.480;2024-02-26T07:24:23;23.80;;;14.10;;
63688;SDS011;54895;40.928;14.480;2024-02-26T07:26:49;21.08;;;13.55;;
63688;SDS011;54895;40.928;14.480;2024-02-26T07:29:16;22.52;;;12.02;;
63688;SDS011;54895;40.928;14.480;2024-02-26T07:31:43;18.98;;;11.77;;
63688;SDS011;54895;40.928;14.480;2024-02-26T07:34:09;16.83;;;10.55;;
63688;SDS011;54895;40.928;14.480;2024-02-26T07:36:36;17.33;;;9.70;;
63688;SDS011;54895;40.928;14.480;2024-02-26T07:39:03;13.98;;;9.05;;
63688;SDS011;54895;40.928;14.480;2024-02-26T07:41:29;19.08;;;8.98;;
63688;SDS011;54895;40.928;14.480;2024-02-26T07:43:56;14.30;;;8.43;;
63688;SDS011;54895;40.928;14.480;2024-02-26T07:46:22;13.18;;;7.75;;
63688;SDS011;54895;40.928;14.480;2024-02-26T07:48:49;13.13;;;7.03;;
63688;SDS011;54895;40.928;14.480;2024-02-26T07:51:15;14.35;;;7.18;;
63688;SDS011;54895;40.928;14.480;2024-02-26T07:53:43;13.60;;;6.55;;
63688;SDS011;54895;40.928;14.480;2024-02-26T07:56:09;13.45;;;7.05;;
63688;SDS011;54895;40.928;14.480;2024-02-26T07:58:36;12.15;;;7.15;;
63688;SDS011;54895;40.928;14.480;2024-02-26T08:01:03;13.88;;;6.88;;
63688;SDS011;54895;40.928;14.480;2024-02-26T08:03:29;13.48;;;7.60;;
63688;SDS011;54895;40.928;14.480;2024-02-26T08:05:56;16.02;;;8.02;;
63688;SDS011;54895;40.928;14.480;2024-02-26T08:08:23;13.77;;;7.95;;
63688;SDS011;54895;40.928;14.480;2024-02-26T08:10:49;15.48;;;9.38;;
63688;SDS011;54895;40.928;14.480;2024-02-26T08:13:16;15.23;;;8.15;;
63688;SDS011;54895;40.928;14.480;2024-02-26T08:15:42;14.07;;;7.90;;
63688;SDS011;54895;40.928;14.480;2024-02-26T08:18:13;14.82;;;7.85;;
63688;SDS011;54895;40.928;14.480;2024-02-26T08:20:43;12.85;;;7.72;;
63688;SDS011;54895;40.928;14.480;2024-02-26T08:23:10;12.45;;;7.70;;
63688;SDS011;54895;40.928;14.480;2024-02-26T08:25:37;12.10;;;6.97;;
63688;SDS011;54895;40.928;14.480;2024-02-26T08:28:03;10.45;;;6.15;;
63688;SDS011;54895;40.928;14.480;2024-02-26T08:30:31;9.50;;;6.20;;
63688;SDS011;54895;40.928;14.480;2024-02-26T08:32:58;17.83;;;6.40;;
63688;SDS011;54895;40.928;14.480;2024-02-26T08:35:25;10.82;;;6.85;;
63688;SDS011;54895;40.928;14.480;2024-02-26T08:37:51;12.40;;;6.32;;
63688;SDS011;54895;40.928;14.480;2024-02-26T08:40:18;11.23;;;6.10;;
63688;SDS011;54895;40.928;14.480;2024-02-26T08:42:45;13.60;;;6.80;;
63688;SDS011;54895;40.928;14.480;2024-02-26T08:45:12;14.48;;;7.20;;
63688;SDS011;54895;40.928;14.480;2024-02-26T08:47:40;12.70;;;6.55;;
63688;SDS011;54895;40.928;14.480;2024-02-26T08:50:07;9.80;;;6.32;;
63688;SDS011;54895;40.928;14.480;2024-02-26T08:52:35;12.30;;;6.70;;
63688;SDS011;54895;40.928;14.480;2024-02-26T08:55:02;13.35;;;7.47;;
63688;SDS011;54895;40.928;14.480;2024-02-26T08:57:29;12.45;;;5.93;;
63688;SDS011;54895;40.928;14.480;2024-02-26T08:59:59;10.93;;;7.00;;
63688;SDS011;54895;40.928;14.480;2024-02-26T09:02:26;8.90;;;5.88;;
63688;SDS011;54895;40.928;14.480;2024-02-26T09:04:53;14.13;;;6.72;;
63688;SDS011;54895;40.928;14.480;2024-02-26T09:07:21;10.73;;;5.60;;
63688;SDS011;54895;40.928;14.480;2024-02-26T09:09:48;12.70;;;6.15;;
63688;SDS011;54895;40.928;14.480;2024-02-26T09:12:15;12.05;;;6.10;;
63688;SDS011;54895;40.928;14.480;2024-02-26T09:14:41;12.75;;;6.28;;
63688;SDS011;54895;40.928;14.480;2024-02-26T09:17:08;11.50;;;5.90;;
63688;SDS011;54895;40.928;14.480;2024-02-26T09:19:35;9.13;;;6.15;;
63688;SDS011;54895;40.928;14.480;2024-02-26T09:22:01;10.50;;;6.05;;
63688;SDS011;54895;40.928;14.480;2024-02-26T09:24:28;10.65;;;6.13;;
63688;SDS011;54895;40.928;14.480;2024-02-26T09:26:54;11.18;;;5.55;;
63688;SDS011;54895;40.928;14.480;2024-02-26T09:29:21;12.10;;;4.95;;
63688;SDS011;54895;40.928;14.480;2024-02-26T09:31:47;8.75;;;5.28;;
63688;SDS011;54895;40.928;14.480;2024-02-26T09:34:14;10.88;;;5.72;;
63688;SDS011;54895;40.928;14.480;2024-02-26T09:36:40;7.97;;;4.22;;
63688;SDS011;54895;40.928;14.480;2024-02-26T09:39:07;12.02;;;4.97;;
63688;SDS011;54895;40.928;14.480;2024-02-26T09:41:37;8.77;;;4.75;;
63688;SDS011;54895;40.928;14.480;2024-02-26T09:44:07;8.90;;;4.20;;
63688;SDS011;54895;40.928;14.480;2024-02-26T09:46:38;8.15;;;3.90;;
63688;SDS011;54895;40.928;14.480;2024-02-26T09:49:07;9.80;;;4.20;;
63688;SDS011;54895;40.928;14.480;2024-02-26T09:51:36;11.02;;;4.18;;
63688;SDS011;54895;40.928;14.480;2024-02-26T09:54:15;7.65;;;4.78;;
63688;SDS011;54895;40.928;14.480;2024-02-26T09:56:43;7.93;;;4.15;;
63688;SDS011;54895;40.928;14.480;2024-02-26T09:59:15;7.15;;;3.90;;
63688;SDS011;54895;40.928;14.480;2024-02-26T10:01:44;9.57;;;3.40;;
63688;SDS011;54895;40.928;14.480;2024-02-26T10:04:14;6.35;;;3.58;;
63688;SDS011;54895;40.928;14.480;2024-02-26T10:06:41;8.70;;;3.80;;
63688;SDS011;54895;40.928;14.480;2024-02-26T10:09:11;6.78;;;3.67;;
63688;SDS011;54895;40.928;14.480;2024-02-26T10:11:42;6.40;;;3.80;;
63688;SDS011;54895;40.928;14.480;2024-02-26T10:14:10;7.20;;;3.78;;
63688;SDS011;54895;40.928;14.480;2024-02-26T10:16:42;9.55;;;3.72;;
63688;SDS011;54895;40.928;14.480;2024-02-26T10:19:10;8.27;;;4.00;;
63688;SDS011;54895;40.928;14.480;2024-02-26T10:22:00;6.80;;;3.92;;
63688;SDS011;54895;40.928;14.480;2024-02-26T10:24:34;10.75;;;3.97;;
63688;SDS011;54895;40.928;14.480;2024-02-26T10:27:01;6.65;;;4.20;;
63688;SDS011;54895;40.928;14.480;2024-02-26T10:29:28;10.45;;;4.55;;
63688;SDS011;54895;40.928;14.480;2024-02-26T10:31:56;8.32;;;4.20;;
63688;SDS011;54895;40.928;14.480;2024-02-26T10:34:22;6.90;;;4.13;;
63688;SDS011;54895;40.928;14.480;2024-02-26T10:36:51;10.55;;;4.20;;
63688;SDS011;54895;40.928;14.480;2024-02-26T10:39:19;8.73;;;4.22;;
63688;SDS011;54895;40.928;14.480;2024-02-26T10:41:49;7.38;;;3.92;;
63688;SDS011;54895;40.928;14.480;2024-02-26T10:44:20;9.77;;;4.25;;
63688;SDS011;54895;40.928;14.480;2024-02-26T10:46:48;7.10;;;4.20;;
63688;SDS011;54895;40.928;14.480;2024-02-26T10:49:16;7.85;;;4.15;;
63688;SDS011;54895;40.928;14.480;2024-02-26T10:51:48;6.30;;;3.90;;
63688;SDS011;54895;40.928;14.480;2024-02-26T10:54:21;6.10;;;3.75;;
63688;SDS011;54895;40.928;14.480;2024-02-26T10:56:51;9.38;;;4.80;;
63688;SDS011;54895;40.928;14.480;2024-02-26T10:59:19;7.15;;;4.28;;
63688;SDS011;54895;40.928;14.480;2024-02-26T11:01:48;9.38;;;4.30;;
63688;SDS011;54895;40.928;14.480;2024-02-26T11:04:16;8.50;;;4.43;;
63688;SDS011;54895;40.928;14.480;2024-02-26T11:06:45;8.02;;;4.57;;
63688;SDS011;54895;40.928;14.480;2024-02-26T11:09:26;8.15;;;4.53;;
63688;SDS011;54895;40.928;14.480;2024-02-26T11:11:53;7.78;;;4.65;;
63688;SDS011;54895;40.928;14.480;2024-02-26T11:14:21;10.43;;;4.45;;
63688;SDS011;54895;40.928;14.480;2024-02-26T11:16:54;10.93;;;4.88;;
63688;SDS011;54895;40.928;14.480;2024-02-26T11:19:22;6.85;;;4.32;;
63688;SDS011;54895;40.928;14.480;2024-02-26T11:21:54;8.25;;;3.85;;
63688;SDS011;54895;40.928;14.480;2024-02-26T11:24:22;10.10;;;4.20;;
63688;SDS011;54895;40.928;14.480;2024-02-26T11:26:54;8.43;;;3.63;;
63688;SDS011;54895;40.928;14.480;2024-02-26T11:29:32;9.70;;;3.63;;
63688;SDS011;54895;40.928;14.480;2024-02-26T11:32:05;6.38;;;3.50;;
63688;SDS011;54895;40.928;14.480;2024-02-26T11:34:33;6.45;;;2.55;;
63688;SDS011;54895;40.928;14.480;2024-02-26T11:37:08;6.18;;;2.63;;
63688;SDS011;54895;40.928;14.480;2024-02-26T11:39:40;3.88;;;1.80;;
63688;SDS011;54895;40.928;14.480;2024-02-26T11:42:08;4.60;;;1.95;;
63688;SDS011;54895;40.928;14.480;2024-02-26T11:44:35;6.68;;;1.92;;
63688;SDS011;54895;40.928;14.480;2024-02-26T11:47:18;5.82;;;2.30;;
63688;SDS011;54895;40.928;14.480;2024-02-26T11:49:46;3.25;;;1.60;;
63688;SDS011;54895;40.928;14.480;2024-02-26T11:52:14;3.10;;;1.50;;
63688;SDS011;54895;40.928;14.480;2024-02-26T11:54:49;5.25;;;1.65;;
63688;SDS011;54895;40.928;14.480;2024-02-26T11:57:30;3.08;;;1.60;;
63688;SDS011;54895;40.928;14.480;2024-02-26T12:05:32;2.65;;;1.50;;
63688;SDS011;54895;40.928;14.480;2024-02-26T12:08:00;5.15;;;1.80;;
63688;SDS011;54895;40.928;14.480;2024-02-26T12:10:36;3.40;;;1.23;;
63688;SDS011;54895;40.928;14.480;2024-02-26T12:13:11;3.78;;;1.90;;
63688;SDS011;54895;40.928;14.480;2024-02-26T12:16:13;3.55;;;1.88;;
63688;SDS011;54895;40.928;14.480;2024-02-26T12:18:33;4.15;;;1.75;;
63688;SDS011;54895;40.928;14.480;2024-02-26T12:21:04;5.10;;;1.75;;
63688;SDS011;54895;40.928;14.480;2024-02-26T12:23:31;5.57;;;2.10;;
63688;SDS011;54895;40.928;14.480;2024-02-26T12:29:01;5.70;;;1.77;;
63688;SDS011;54895;40.928;14.480;2024-02-26T12:31:28;6.40;;;2.15;;
63688;SDS011;54895;40.928;14.480;2024-02-26T12:33:59;3.40;;;1.58;;
63688;SDS011;54895;40.928;14.480;2024-02-26T12:36:27;3.80;;;1.65;;
63688;SDS011;54895;40.928;14.480;2024-02-26T12:38:54;2.92;;;1.40;;
63688;SDS011;54895;40.928;14.480;2024-02-26T12:41:22;3.30;;;1.50;;
63688;SDS011;54895;40.928;14.480;2024-02-26T12:43:56;3.05;;;1.50;;
63688;SDS011;54895;40.928;14.480;2024-02-26T12:46:41;3.25;;;1.63;;
63688;SDS011;54895;40.928;14.480;2024-02-26T12:49:15;5.03;;;1.60;;
63688;SDS011;54895;40.928;14.480;2024-02-26T12:51:50;5.43;;;1.92;;
63688;SDS011;54895;40.928;14.480;2024-02-26T12:54:19;5.68;;;1.60;;
63688;SDS011;54895;40.928;14.480;2024-02-26T12:56:46;2.88;;;1.67;;
63688;SDS011;54895;40.928;14.480;2024-02-26T12:59:17;3.10;;;1.30;;
63688;SDS011;54895;40.928;14.480;2024-02-26T13:01:46;4.03;;;1.15;;
63688;SDS011;54895;40.928;14.480;2024-02-26T13:04:17;5.00;;;1.67;;
63688;SDS011;54895;40.928;14.480;2024-02-26T13:06:48;5.07;;;1.50;;
63688;SDS011;54895;40.928;14.480;2024-02-26T13:09:18;4.30;;;1.70;;
63688;SDS011;54895;40.928;14.480;2024-02-26T13:11:45;3.88;;;1.27;;
63688;SDS011;54895;40.928;14.480;2024-02-26T13:14:20;1.83;;;1.15;;
63688;SDS011;54895;40.928;14.480;2024-02-26T13:19:23;5.63;;;1.35;;
63688;SDS011;54895;40.928;14.480;2024-02-26T13:21:50;4.20;;;1.50;;
63688;SDS011;54895;40.928;14.480;2024-02-26T13:24:16;1.88;;;0.95;;
63688;SDS011;54895;40.928;14.480;2024-02-26T13:26:44;2.60;;;1.38;;
63688;SDS011;54895;40.928;14.480;2024-02-26T13:29:17;1.83;;;1.10;;
63688;SDS011;54895;40.928;14.480;2024-02-26T13:31:45;3.40;;;1.30;;
63688;SDS011;54895;40.928;14.480;2024-02-26T13:36:52;3.10;;;0.98;;
63688;SDS011;54895;40.928;14.480;2024-02-26T13:39:23;5.13;;;1.10;;
63688;SDS011;54895;40.928;14.480;2024-02-26T13:41:52;3.60;;;1.02;;
63688;SDS011;54895;40.928;14.480;2024-02-26T13:44:20;4.25;;;0.90;;
63688;SDS011;54895;40.928;14.480;2024-02-26T13:46:47;6.10;;;1.63;;
63688;SDS011;54895;40.928;14.480;2024-02-26T13:49:15;2.92;;;1.35;;
63688;SDS011;54895;40.928;14.480;2024-02-26T13:51:41;3.22;;;0.73;;
63688;SDS011;54895;40.928;14.480;2024-02-26T13:54:08;1.65;;;0.85;;
63688;SDS011;54895;40.928;14.480;2024-02-26T13:56:36;3.75;;;0.93;;
63688;SDS011;54895;40.928;14.480;2024-02-26T13:59:02;2.78;;;0.80;;
63688;SDS011;54895;40.928;14.480;2024-02-26T14:01:30;2.63;;;1.00;;
63688;SDS011;54895;40.928;14.480;2024-02-26T14:03:59;4.07;;;0.70;;
63688;SDS011;54895;40.928;14.480;2024-02-26T14:06:27;4.68;;;1.00;;
63688;SDS011;54895;40.928;14.480;2024-02-26T14:08:54;2.72;;;0.70;;
63688;SDS011;54895;40.928;14.480;2024-02-26T14:11:22;2.50;;;0.82;;
63688;SDS011;54895;40.928;14.480;2024-02-26T14:13:49;2.17;;;0.80;;
63688;SDS011;54895;40.928;14.480;2024-02-26T14:16:15;3.63;;;0.75;;
63688;SDS011;54895;40.928;14.480;2024-02-26T14:18:42;3.30;;;0.70;;
63688;SDS011;54895;40.928;14.480;2024-02-26T14:21:11;2.45;;;0.68;;
63688;SDS011;54895;40.928;14.480;2024-02-26T14:23:38;2.47;;;0.70;;
63688;SDS011;54895;40.928;14.480;2024-02-26T14:26:05;3.20;;;0.70;;
63688;SDS011;54895;40.928;14.480;2024-02-26T14:28:32;2.28;;;0.95;;
63688;SDS011;54895;40.928;14.480;2024-02-26T14:31:00;1.83;;;0.93;;
63688;SDS011;54895;40.928;14.480;2024-02-26T14:33:26;2.72;;;0.82;;
63688;SDS011;54895;40.928;14.480;2024-02-26T14:35:53;2.10;;;0.60;;